sensor_id;sensor_type;location;lat;lon;timestamp;pressure;altitude;pressure_sealevel;temperature;humidity
68628;BME280;55611;48.602;9.490;2023-02-01T00:02:11;97540;;;7.3;59
68628;BME280;55611;48.602;9.490;2023-02-01T00:04:42;97540;;;7.4;59
68628;BME280;55611;48.602;9.490;2023-02-01T00:07:13;97530;;;7.3;59
68628;BME280;55611;48.602;9.490;2023-02-01T00:09:43;97540;;;7.3;59
68628;BME280;55611;48.602;9.490;2023-02-01T00:12:13;97540;;;7.2;59
68628;BME280;55611;48.602;9.490;2023-02-01T00:14:44;97540;;;7.2;59.5
68628;BME280;55611;48.602;9.490;2023-02-01T00:17:14;97530;;;7.1;59.5
68628;BME280;55611;48.602;9.490;2023-02-01T00:19:45;97540;;;7.1;59
68628;BME280;55611;48.602;9.490;2023-02-01T00:22:16;97540;;;7.1;59
68628;BME280;55611;48.602;9.490;2023-02-01T00:24:46;97540;;;7;59
68628;BME280;55611;48.602;9.490;2023-02-01T00:27:17;97520;;;7;59
68628;BME280;55611;48.602;9.490;2023-02-01T00:29:47;97520;;;6.9;59
68628;BME280;55611;48.602;9.490;2023-02-01T00:32:18;97510;;;7;59
68628;BME280;55611;48.602;9.490;2023-02-01T00:34:48;97510;;;7.1;59
68628;BME280;55611;48.602;9.490;2023-02-01T00:37:19;97510;;;7;59
68628;BME280;55611;48.602;9.490;2023-02-01T00:39:49;97530;;;7.1;59
68628;BME280;55611;48.602;9.490;2023-02-01T00:42:20;97510;;;7.1;59
68628;BME280;55611;48.602;9.490;2023-02-01T00:44:50;97510;;;7.1;59.5
68628;BME280;55611;48.602;9.490;2023-02-01T00:47:21;97500;;;7.2;59.5
68628;BME280;55611;48.602;9.490;2023-02-01T00:49:51;97510;;;7.2;59.5
68628;BME280;55611;48.602;9.490;2023-02-01T00:52:22;97500;;;7.2;59.5
68628;BME280;55611;48.602;9.490;2023-02-01T00:54:52;97500;;;7.2;59.5
68628;BME280;55611;48.602;9.490;2023-02-01T00:57:23;97500;;;7.2;59.5
68628;BME280;55611;48.602;9.490;2023-02-01T00:59:53;97520;;;7.3;59.5
68628;BME280;55611;48.602;9.490;2023-02-01T01:02:25;97480;;;7.3;59.5
68628;BME280;55611;48.602;9.490;2023-02-01T01:04:54;97500;;;7.3;59.5
68628;BME280;55611;48.602;9.490;2023-02-01T01:07:25;97490;;;7.3;59.5
68628;BME280;55611;48.602;9.490;2023-02-01T01:09:55;97490;;;7.3;59.5
68628;BME280;55611;48.602;9.490;2023-02-01T01:12:26;97480;;;7.3;59.5
68628;BME280;55611;48.602;9.490;2023-02-01T01:14:56;97490;;;7.4;59.5
68628;BME280;55611;48.602;9.490;2023-02-01T01:17:27;97480;;;7.4;59
68628;BME280;55611;48.602;9.490;2023-02-01T01:19:57;97480;;;7.5;59
68628;BME280;55611;48.602;9.490;2023-02-01T01:22:28;97480;;;7.5;59
68628;BME280;55611;48.602;9.490;2023-02-01T01:24:58;97490;;;7.5;59
68628;BME280;55611;48.602;9.490;2023-02-01T01:27:29;97470;;;7.5;59
68628;BME280;55611;48.602;9.490;2023-02-01T01:29:59;97480;;;7.4;59
68628;BME280;55611;48.602;9.490;2023-02-01T01:32:30;97490;;;7.4;59
68628;BME280;55611;48.602;9.490;2023-02-01T01:35:01;97470;;;7.4;59.5
68628;BME280;55611;48.602;9.490;2023-02-01T01:37:31;97480;;;7.5;59.5
68628;BME280;55611;48.602;9.490;2023-02-01T01:40:03;97470;;;7.5;59.5
68628;BME280;55611;48.602;9.490;2023-02-01T01:42:39;97490;;;7.5;59.5
68628;BME280;55611;48.602;9.490;2023-02-01T01:45:05;97490;;;7.5;59.5
68628;BME280;55611;48.602;9.490;2023-02-01T01:47:34;97470;;;7.5;59.5
68628;BME280;55611;48.602;9.490;2023-02-01T01:50:04;97470;;;7.5;59.5
68628;BME280;55611;48.602;9.490;2023-02-01T01:52:34;97480;;;7.6;59.5
68628;BME280;55611;48.602;9.490;2023-02-01T01:55:05;97470;;;7.5;59.5
68628;BME280;55611;48.602;9.490;2023-02-01T01:57:37;97480;;;7.6;59.5
68628;BME280;55611;48.602;9.490;2023-02-01T02:00:08;97470;;;7.6;59.5
68628;BME280;55611;48.602;9.490;2023-02-01T02:02:37;97470;;;7.6;59.5
68628;BME280;55611;48.602;9.490;2023-02-01T02:05:07;97480;;;7.6;59.5
68628;BME280;55611;48.602;9.490;2023-02-01T02:07:39;97470;;;7.6;59.5
68628;BME280;55611;48.602;9.490;2023-02-01T02:10:09;97480;;;7.6;59.5
68628;BME280;55611;48.602;9.490;2023-02-01T02:12:40;97460;;;7.6;59.5
68628;BME280;55611;48.602;9.490;2023-02-01T02:15:09;97440;;;7.6;59.5
68628;BME280;55611;48.602;9.490;2023-02-01T02:20:30;97440;;;7.6;59.5
68628;BME280;55611;48.602;9.490;2023-02-01T02:25:17;97440;;;7.7;59.5
68628;BME280;55611;48.602;9.490;2023-02-01T02:27:49;97440;;;7.8;59.5
68628;BME280;55611;48.602;9.490;2023-02-01T02:31:20;97450;;;7.8;59.5
68628;BME280;55611;48.602;9.490;2023-02-01T02:33:47;97430;;;7.7;59.5
68628;BME280;55611;48.602;9.490;2023-02-01T02:35:17;97450;;;7.7;59.5
68628;BME280;55611;48.602;9.490;2023-02-01T02:37:46;97430;;;7.7;59.5
68628;BME280;55611;48.602;9.490;2023-02-01T02:40:15;97440;;;7.7;59.5
68628;BME280;55611;48.602;9.490;2023-02-01T02:43:48;97430;;;7.7;59.5
68628;BME280;55611;48.602;9.490;2023-02-01T02:45:17;97420;;;7.7;59.5
68628;BME280;55611;48.602;9.490;2023-02-01T02:47:50;97440;;;7.7;59.5
68628;BME280;55611;48.602;9.490;2023-02-01T02:50:20;97430;;;7.7;59.5
68628;BME280;55611;48.602;9.490;2023-02-01T02:52:49;97420;;;7.7;59.5
68628;BME280;55611;48.602;9.490;2023-02-01T02:55:17;97440;;;7.7;59.5
68628;BME280;55611;48.602;9.490;2023-02-01T02:57:47;97420;;;7.7;59.5
68628;BME280;55611;48.602;9.490;2023-02-01T03:00:19;97430;;;7.7;59.5
68628;BME280;55611;48.602;9.490;2023-02-01T03:02:49;97440;;;7.7;59.5
68628;BME280;55611;48.602;9.490;2023-02-01T03:05:19;97430;;;7.7;59.5
68628;BME280;55611;48.602;9.490;2023-02-01T03:08:00;97430;;;7.7;59.5
68628;BME280;55611;48.602;9.490;2023-02-01T03:10:23;97420;;;7.7;59.5
68628;BME280;55611;48.602;9.490;2023-02-01T03:15:24;97420;;;7.6;59.5
68628;BME280;55611;48.602;9.490;2023-02-01T03:17:52;97430;;;7.6;59.5
68628;BME280;55611;48.602;9.490;2023-02-01T03:20:22;97440;;;7.6;59.5
68628;BME280;55611;48.602;9.490;2023-02-01T03:22:53;97450;;;7.5;59.5
68628;BME280;55611;48.602;9.490;2023-02-01T03:25:25;97440;;;7.4;59.5
68628;BME280;55611;48.602;9.490;2023-02-01T03:27:55;97450;;;7.3;59.5
68628;BME280;55611;48.602;9.490;2023-02-01T03:30:26;97450;;;7.2;59.5
68628;BME280;55611;48.602;9.490;2023-02-01T03:32:56;97440;;;7.2;59
68628;BME280;55611;48.602;9.490;2023-02-01T03:35:28;97450;;;7.1;59.5
68628;BME280;55611;48.602;9.490;2023-02-01T03:37:56;97440;;;7.2;59
68628;BME280;55611;48.602;9.490;2023-02-01T03:40:26;97430;;;7.2;59
68628;BME280;55611;48.602;9.490;2023-02-01T03:42:57;97410;;;7.3;59.5
68628;BME280;55611;48.602;9.490;2023-02-01T03:45:29;97390;;;7.3;59
68628;BME280;55611;48.602;9.490;2023-02-01T03:47:58;97380;;;7.4;59
68628;BME280;55611;48.602;9.490;2023-02-01T03:50:28;97420;;;7.4;59
68628;BME280;55611;48.602;9.490;2023-02-01T03:53:03;97410;;;7.4;59.5
68628;BME280;55611;48.602;9.490;2023-02-01T03:55:29;97410;;;7.4;59.5
68628;BME280;55611;48.602;9.490;2023-02-01T03:58:03;97410;;;7.5;59.5
68628;BME280;55611;48.602;9.490;2023-02-01T04:00:30;97420;;;7.5;59.5
68628;BME280;55611;48.602;9.490;2023-02-01T04:03:01;97410;;;7.6;59.5
68628;BME280;55611;48.602;9.490;2023-02-01T04:05:32;97410;;;7.6;59.5
68628;BME280;55611;48.602;9.490;2023-02-01T04:08:02;97410;;;7.6;59.5
68628;BME280;55611;48.602;9.490;2023-02-01T04:10:32;97400;;;7.6;59.5
68628;BME280;55611;48.602;9.490;2023-02-01T04:13:03;97390;;;7.6;59.5
68628;BME280;55611;48.602;9.490;2023-02-01T04:15:33;97410;;;7.6;59.5
68628;BME280;55611;48.602;9.490;2023-02-01T04:18:04;97390;;;7.6;59.5
68628;BME280;55611;48.602;9.490;2023-02-01T04:20:34;97380;;;7.6;59.5
68628;BME280;55611;48.602;9.490;2023-02-01T04:23:05;97410;;;7.8;59.5
68628;BME280;55611;48.602;9.490;2023-02-01T04:25:35;97390;;;7.8;59.5
68628;BME280;55611;48.602;9.490;2023-02-01T04:28:06;97390;;;7.8;59.5
68628;BME280;55611;48.602;9.490;2023-02-01T04:30:37;97390;;;7.8;59.5
68628;BME280;55611;48.602;9.490;2023-02-01T04:33:07;97400;;;7.8;59.5
68628;BME280;55611;48.602;9.490;2023-02-01T04:35:38;97400;;;7.8;59.5
68628;BME280;55611;48.602;9.490;2023-02-01T04:38:08;97390;;;7.8;59.5
68628;BME280;55611;48.602;9.490;2023-02-01T04:40:39;97390;;;7.8;59.5
68628;BME280;55611;48.602;9.490;2023-02-01T04:43:09;97400;;;7.9;59.5
68628;BME280;55611;48.602;9.490;2023-02-01T04:45:40;97390;;;7.8;59.5
68628;BME280;55611;48.602;9.490;2023-02-01T04:48:10;97400;;;7.9;59.5
68628;BME280;55611;48.602;9.490;2023-02-01T04:50:41;97400;;;7.9;59.5
68628;BME280;55611;48.602;9.490;2023-02-01T04:53:11;97420;;;7.9;59.5
68628;BME280;55611;48.602;9.490;2023-02-01T04:55:42;97430;;;7.9;59.5
68628;BME280;55611;48.602;9.490;2023-02-01T04:58:12;97430;;;7.9;60
68628;BME280;55611;48.602;9.490;2023-02-01T05:00:43;97390;;;7.9;59.5
68628;BME280;55611;48.602;9.490;2023-02-01T05:03:13;97390;;;7.8;59.5
68628;BME280;55611;48.602;9.490;2023-02-01T05:05:44;97380;;;7.8;59.5
68628;BME280;55611;48.602;9.490;2023-02-01T05:08:14;97380;;;7.9;59.5
68628;BME280;55611;48.602;9.490;2023-02-01T05:10:45;97390;;;7.9;59.5
68628;BME280;55611;48.602;9.490;2023-02-01T05:15:46;97380;;;7.8;59.5
68628;BME280;55611;48.602;9.490;2023-02-01T05:18:16;97380;;;7.8;59.5
68628;BME280;55611;48.602;9.490;2023-02-01T05:20:47;97370;;;7.8;59.5
68628;BME280;55611;48.602;9.490;2023-02-01T05:23:17;97390;;;7.8;59.5
68628;BME280;55611;48.602;9.490;2023-02-01T05:25:48;97390;;;7.9;59.5
68628;BME280;55611;48.602;9.490;2023-02-01T05:28:18;97420;;;7.8;59.5
68628;BME280;55611;48.602;9.490;2023-02-01T05:30:49;97380;;;7.8;59.5
68628;BME280;55611;48.602;9.490;2023-02-01T05:33:20;97380;;;7.7;59.5
68628;BME280;55611;48.602;9.490;2023-02-01T05:35:50;97390;;;7.7;59.5
68628;BME280;55611;48.602;9.490;2023-02-01T05:38:20;97390;;;7.7;59.5
68628;BME280;55611;48.602;9.490;2023-02-01T05:40:51;97380;;;7.6;59.5
68628;BME280;55611;48.602;9.490;2023-02-01T05:43:21;97390;;;7.7;59.5
68628;BME280;55611;48.602;9.490;2023-02-01T05:45:52;97380;;;7.7;59.5
68628;BME280;55611;48.602;9.490;2023-02-01T05:48:22;97390;;;7.8;59.5
68628;BME280;55611;48.602;9.490;2023-02-01T05:50:53;97380;;;7.8;59.5
68628;BME280;55611;48.602;9.490;2023-02-01T05:53:23;97410;;;7.8;59.5
68628;BME280;55611;48.602;9.490;2023-02-01T05:55:54;97400;;;7.9;59.5
68628;BME280;55611;48.602;9.490;2023-02-01T05:58:25;97410;;;7.9;60
68628;BME280;55611;48.602;9.490;2023-02-01T06:00:55;97410;;;7.9;59.5
68628;BME280;55611;48.602;9.490;2023-02-01T06:03:26;97410;;;7.9;59.5
68628;BME280;55611;48.602;9.490;2023-02-01T06:05:56;97400;;;7.9;59.5
68628;BME280;55611;48.602;9.490;2023-02-01T06:08:27;97410;;;7.9;59.5
68628;BME280;55611;48.602;9.490;2023-02-01T06:10:59;97420;;;7.9;59.5
68628;BME280;55611;48.602;9.490;2023-02-01T06:13:28;97420;;;7.8;59.5
68628;BME280;55611;48.602;9.490;2023-02-01T06:15:58;97420;;;7.8;59.5
68628;BME280;55611;48.602;9.490;2023-02-01T06:18:29;97430;;;7.7;59.5
68628;BME280;55611;48.602;9.490;2023-02-01T06:20:59;97430;;;7.7;59.5
68628;BME280;55611;48.602;9.490;2023-02-01T06:23:30;97420;;;7.6;59.5
68628;BME280;55611;48.602;9.490;2023-02-01T06:26:01;97400;;;7.5;59.5
68628;BME280;55611;48.602;9.490;2023-02-01T06:28:31;97400;;;7.5;59.5
68628;BME280;55611;48.602;9.490;2023-02-01T06:31:03;97430;;;7.5;59.5
68628;BME280;55611;48.602;9.490;2023-02-01T06:33:33;97410;;;7.5;59.5
68628;BME280;55611;48.602;9.490;2023-02-01T06:36:04;97410;;;7.3;59.5
68628;BME280;55611;48.602;9.490;2023-02-01T06:38:33;97390;;;7.1;59.5
68628;BME280;55611;48.602;9.490;2023-02-01T06:41:04;97370;;;7;59.5
68628;BME280;55611;48.602;9.490;2023-02-01T06:43:34;97370;;;6.9;59
68628;BME280;55611;48.602;9.490;2023-02-01T06:46:06;97390;;;6.9;59
68628;BME280;55611;48.602;9.490;2023-02-01T06:48:35;97360;;;6.9;59
68628;BME280;55611;48.602;9.490;2023-02-01T06:51:05;97370;;;6.9;59
68628;BME280;55611;48.602;9.490;2023-02-01T06:53:36;97380;;;6.9;59
68628;BME280;55611;48.602;9.490;2023-02-01T06:58:37;97360;;;7.1;59
68628;BME280;55611;48.602;9.490;2023-02-01T07:01:08;97350;;;7.1;59
68628;BME280;55611;48.602;9.490;2023-02-01T07:03:38;97390;;;7.3;59
68628;BME280;55611;48.602;9.490;2023-02-01T07:06:09;97370;;;7.4;59
68628;BME280;55611;48.602;9.490;2023-02-01T07:08:39;97390;;;7.5;59.5
68628;BME280;55611;48.602;9.490;2023-02-01T07:11:10;97360;;;7.5;59.5
68628;BME280;55611;48.602;9.490;2023-02-01T07:13:40;97390;;;7.4;59.5
68628;BME280;55611;48.602;9.490;2023-02-01T07:16:11;97400;;;7.4;59.5
68628;BME280;55611;48.602;9.490;2023-02-01T07:18:41;97400;;;7.5;59.5
68628;BME280;55611;48.602;9.490;2023-02-01T07:21:12;97390;;;7.5;59.5
68628;BME280;55611;48.602;9.490;2023-02-01T07:23:42;97420;;;7.5;59.5
68628;BME280;55611;48.602;9.490;2023-02-01T07:26:13;97430;;;7.6;59.5
68628;BME280;55611;48.602;9.490;2023-02-01T07:28:43;97440;;;7.5;59.5
68628;BME280;55611;48.602;9.490;2023-02-01T07:31:14;97420;;;7.6;59.5
68628;BME280;55611;48.602;9.490;2023-02-01T07:33:44;97420;;;7.6;59.5
68628;BME280;55611;48.602;9.490;2023-02-01T07:36:15;97420;;;7.6;59.5
68628;BME280;55611;48.602;9.490;2023-02-01T07:38:45;97450;;;7.6;60
68628;BME280;55611;48.602;9.490;2023-02-01T07:41:16;97420;;;7.6;60
68628;BME280;55611;48.602;9.490;2023-02-01T07:43:46;97440;;;7.6;60
68628;BME280;55611;48.602;9.490;2023-02-01T07:46:17;97440;;;7.6;60
68628;BME280;55611;48.602;9.490;2023-02-01T07:48:47;97430;;;7.6;60
68628;BME280;55611;48.602;9.490;2023-02-01T07:51:18;97430;;;7.6;60
68628;BME280;55611;48.602;9.490;2023-02-01T07:53:48;97450;;;7.7;60
68628;BME280;55611;48.602;9.490;2023-02-01T07:56:19;97450;;;7.7;60
68628;BME280;55611;48.602;9.490;2023-02-01T07:58:50;97460;;;7.7;60
68628;BME280;55611;48.602;9.490;2023-02-01T08:01:21;97460;;;7.8;60
68628;BME280;55611;48.602;9.490;2023-02-01T08:03:51;97440;;;7.8;60
68628;BME280;55611;48.602;9.490;2023-02-01T08:06:21;97440;;;7.9;60
68628;BME280;55611;48.602;9.490;2023-02-01T08:08:51;97440;;;7.9;60
68628;BME280;55611;48.602;9.490;2023-02-01T08:11:22;97410;;;7.9;60
68628;BME280;55611;48.602;9.490;2023-02-01T08:13:52;97420;;;7.9;60
68628;BME280;55611;48.602;9.490;2023-02-01T08:16:23;97430;;;7.9;60
68628;BME280;55611;48.602;9.490;2023-02-01T08:18:53;97450;;;7.9;60
68628;BME280;55611;48.602;9.490;2023-02-01T08:21:26;97440;;;8;60
68628;BME280;55611;48.602;9.490;2023-02-01T08:23:54;97420;;;8;60
68628;BME280;55611;48.602;9.490;2023-02-01T08:26:25;97440;;;8;60
68628;BME280;55611;48.602;9.490;2023-02-01T08:28:57;97440;;;8;60
68628;BME280;55611;48.602;9.490;2023-02-01T08:31:27;97440;;;8;60
68628;BME280;55611;48.602;9.490;2023-02-01T08:33:57;97450;;;8.1;60
68628;BME280;55611;48.602;9.490;2023-02-01T08:36:28;97440;;;8;60.5
68628;BME280;55611;48.602;9.490;2023-02-01T08:38:58;97430;;;8;60.5
68628;BME280;55611;48.602;9.490;2023-02-01T08:41:29;97420;;;8.1;60.5
68628;BME280;55611;48.602;9.490;2023-02-01T08:43:59;97430;;;8.1;60.5
68628;BME280;55611;48.602;9.490;2023-02-01T08:46:29;97440;;;8.1;60.5
68628;BME280;55611;48.602;9.490;2023-02-01T08:49:00;97450;;;8.2;60.5
68628;BME280;55611;48.602;9.490;2023-02-01T08:51:30;97450;;;8.2;60.5
68628;BME280;55611;48.602;9.490;2023-02-01T08:54:01;97470;;;8.3;60.5
68628;BME280;55611;48.602;9.490;2023-02-01T08:56:31;97480;;;8.3;60.5
68628;BME280;55611;48.602;9.490;2023-02-01T08:59:02;97480;;;8.2;60.5
68628;BME280;55611;48.602;9.490;2023-02-01T09:01:32;97450;;;8.2;60.5
68628;BME280;55611;48.602;9.490;2023-02-01T09:04:03;97440;;;8.1;60.5
68628;BME280;55611;48.602;9.490;2023-02-01T09:06:33;97470;;;8.1;60.5
68628;BME280;55611;48.602;9.490;2023-02-01T09:09:04;97490;;;8.2;60.5
68628;BME280;55611;48.602;9.490;2023-02-01T09:11:34;97490;;;8.2;60.5
68628;BME280;55611;48.602;9.490;2023-02-01T09:14:05;97470;;;8.3;60.5
68628;BME280;55611;48.602;9.490;2023-02-01T09:16:35;97480;;;8.4;60.5
68628;BME280;55611;48.602;9.490;2023-02-01T09:19:06;97480;;;8.3;60.5
68628;BME280;55611;48.602;9.490;2023-02-01T09:21:36;97450;;;8.4;60
68628;BME280;55611;48.602;9.490;2023-02-01T09:24:08;97490;;;8.3;60.5
68628;BME280;55611;48.602;9.490;2023-02-01T09:26:37;97470;;;8.1;60.5
68628;BME280;55611;48.602;9.490;2023-02-01T09:29:08;97510;;;8.2;60.5
68628;BME280;55611;48.602;9.490;2023-02-01T09:31:39;97490;;;8.1;60.5
68628;BME280;55611;48.602;9.490;2023-02-01T09:34:09;97500;;;8.1;60.5
68628;BME280;55611;48.602;9.490;2023-02-01T09:36:39;97480;;;8.1;60.5
68628;BME280;55611;48.602;9.490;2023-02-01T09:39:10;97500;;;8.1;60.5
68628;BME280;55611;48.602;9.490;2023-02-01T09:41:51;97480;;;8.1;60.5
68628;BME280;55611;48.602;9.490;2023-02-01T09:44:15;97510;;;8.2;60.5
68628;BME280;55611;48.602;9.490;2023-02-01T09:46:41;97500;;;8.1;60.5
68628;BME280;55611;48.602;9.490;2023-02-01T09:49:13;97510;;;8.1;60.5
68628;BME280;55611;48.602;9.490;2023-02-01T09:51:44;97510;;;8.1;60.5
68628;BME280;55611;48.602;9.490;2023-02-01T09:54:29;97500;;;8.1;60.5
68628;BME280;55611;48.602;9.490;2023-02-01T09:56:46;97510;;;8.1;60.5
68628;BME280;55611;48.602;9.490;2023-02-01T09:59:32;97520;;;8.1;60.5
68628;BME280;55611;48.602;9.490;2023-02-01T10:01:45;97510;;;8.1;60.5
68628;BME280;55611;48.602;9.490;2023-02-01T10:04:15;97520;;;8;60.5
68628;BME280;55611;48.602;9.490;2023-02-01T10:06:52;97520;;;8.1;60.5
68628;BME280;55611;48.602;9.490;2023-02-01T10:09:23;97510;;;8;60.5
68628;BME280;55611;48.602;9.490;2023-02-01T10:14:21;97490;;;8;60.5
68628;BME280;55611;48.602;9.490;2023-02-01T10:16:50;97510;;;8;61
68628;BME280;55611;48.602;9.490;2023-02-01T10:19:23;97500;;;8.1;61
68628;BME280;55611;48.602;9.490;2023-02-01T10:21:51;97510;;;8.2;61
68628;BME280;55611;48.602;9.490;2023-02-01T10:26:51;97530;;;8.2;61
68628;BME280;55611;48.602;9.490;2023-02-01T10:29:22;97540;;;8.1;61
68628;BME280;55611;48.602;9.490;2023-02-01T10:31:51;97530;;;8.2;61
68628;BME280;55611;48.602;9.490;2023-02-01T10:34:25;97540;;;8.2;61
68628;BME280;55611;48.602;9.490;2023-02-01T10:36:53;97530;;;8.2;61
68628;BME280;55611;48.602;9.490;2023-02-01T10:39:22;97540;;;8.1;61
68628;BME280;55611;48.602;9.490;2023-02-01T10:41:53;97550;;;8.2;61
68628;BME280;55611;48.602;9.490;2023-02-01T10:44:24;97530;;;8.1;61
68628;BME280;55611;48.602;9.490;2023-02-01T10:46:54;97550;;;8.1;61
68628;BME280;55611;48.602;9.490;2023-02-01T10:49:29;97520;;;8.2;61
68628;BME280;55611;48.602;9.490;2023-02-01T10:54:33;97550;;;8.2;61
68628;BME280;55611;48.602;9.490;2023-02-01T10:56:56;97540;;;8.3;61
68628;BME280;55611;48.602;9.490;2023-02-01T10:59:27;97550;;;8.3;61
68628;BME280;55611;48.602;9.490;2023-02-01T11:01:58;97540;;;8.4;61
68628;BME280;55611;48.602;9.490;2023-02-01T11:04:28;97520;;;8.3;61
68628;BME280;55611;48.602;9.490;2023-02-01T11:07:29;97540;;;8.4;61
68628;BME280;55611;48.602;9.490;2023-02-01T11:09:28;97530;;;8.4;61
68628;BME280;55611;48.602;9.490;2023-02-01T11:11:59;97510;;;8.3;61
68628;BME280;55611;48.602;9.490;2023-02-01T11:14:35;97520;;;8.3;61
68628;BME280;55611;48.602;9.490;2023-02-01T11:17:01;97520;;;8.3;61
68628;BME280;55611;48.602;9.490;2023-02-01T11:19:31;97510;;;8.3;61
68628;BME280;55611;48.602;9.490;2023-02-01T11:22:01;97510;;;8.2;61
68628;BME280;55611;48.602;9.490;2023-02-01T11:24:32;97510;;;8.3;61
68628;BME280;55611;48.602;9.490;2023-02-01T11:27:03;97500;;;8.3;61
68628;BME280;55611;48.602;9.490;2023-02-01T11:29:37;97480;;;8.3;61
68628;BME280;55611;48.602;9.490;2023-02-01T11:32:03;97490;;;8.4;61
68628;BME280;55611;48.602;9.490;2023-02-01T11:34:36;97500;;;8.3;61
68628;BME280;55611;48.602;9.490;2023-02-01T11:37:04;97500;;;8.5;61
68628;BME280;55611;48.602;9.490;2023-02-01T11:39:35;97490;;;8.5;61
68628;BME280;55611;48.602;9.490;2023-02-01T11:42:11;97500;;;8.5;61
68628;BME280;55611;48.602;9.490;2023-02-01T11:44:38;97490;;;8.5;61
68628;BME280;55611;48.602;9.490;2023-02-01T11:47:24;97490;;;8.6;61
68628;BME280;55611;48.602;9.490;2023-02-01T11:49:37;97480;;;8.6;61
68628;BME280;55611;48.602;9.490;2023-02-01T11:54:49;97480;;;8.5;61
68628;BME280;55611;48.602;9.490;2023-02-01T11:57:14;97450;;;8.6;61
68628;BME280;55611;48.602;9.490;2023-02-01T11:59:46;97450;;;8.7;61
68628;BME280;55611;48.602;9.490;2023-02-01T12:04:44;97450;;;8.6;61
68628;BME280;55611;48.602;9.490;2023-02-01T12:07:16;97440;;;8.7;61
68628;BME280;55611;48.602;9.490;2023-02-01T12:09:45;97450;;;8.7;61.5
68628;BME280;55611;48.602;9.490;2023-02-01T12:12:48;97440;;;8.7;61
68628;BME280;55611;48.602;9.490;2023-02-01T12:14:46;97430;;;8.7;61
68628;BME280;55611;48.602;9.490;2023-02-01T12:20:02;97450;;;8.8;61
68628;BME280;55611;48.602;9.490;2023-02-01T12:22:17;97460;;;8.8;61
68628;BME280;55611;48.602;9.490;2023-02-01T12:24:48;97450;;;8.8;61
68628;BME280;55611;48.602;9.490;2023-02-01T12:27:21;97450;;;8.8;60.5
68628;BME280;55611;48.602;9.490;2023-02-01T12:29:48;97440;;;8.8;60.5
68628;BME280;55611;48.602;9.490;2023-02-01T12:32:34;97440;;;8.7;60.5
68628;BME280;55611;48.602;9.490;2023-02-01T12:34:50;97440;;;8.6;60.5
68628;BME280;55611;48.602;9.490;2023-02-01T12:37:51;97460;;;8.6;60.5
68628;BME280;55611;48.602;9.490;2023-02-01T12:39:51;97450;;;8.6;60.5
68628;BME280;55611;48.602;9.490;2023-02-01T12:42:23;97450;;;8.6;60.5
68628;BME280;55611;48.602;9.490;2023-02-01T12:44:50;97450;;;8.6;60.5
68628;BME280;55611;48.602;9.490;2023-02-01T12:47:21;97450;;;8.5;60.5
68628;BME280;55611;48.602;9.490;2023-02-01T12:49:58;97450;;;8.5;60.5
68628;BME280;55611;48.602;9.490;2023-02-01T12:52:23;97440;;;8.5;60.5
68628;BME280;55611;48.602;9.490;2023-02-01T12:54:54;97430;;;8.4;60.5
68628;BME280;55611;48.602;9.490;2023-02-01T12:57:23;97440;;;8.4;60.5
68628;BME280;55611;48.602;9.490;2023-02-01T12:59:54;97450;;;8.4;60.5
68628;BME280;55611;48.602;9.490;2023-02-01T13:02:27;97460;;;8.5;60.5
68628;BME280;55611;48.602;9.490;2023-02-01T13:04:58;97440;;;8.5;60.5
68628;BME280;55611;48.602;9.490;2023-02-01T13:07:25;97440;;;8.5;60.5
68628;BME280;55611;48.602;9.490;2023-02-01T13:09:57;97440;;;8.5;60.5
68628;BME280;55611;48.602;9.490;2023-02-01T13:12:27;97430;;;8.4;60.5
68628;BME280;55611;48.602;9.490;2023-02-01T13:14:59;97440;;;8.4;60.5
68628;BME280;55611;48.602;9.490;2023-02-01T13:17:26;97440;;;8.5;60.5
68628;BME280;55611;48.602;9.490;2023-02-01T13:19:57;97440;;;8.4;60.5
68628;BME280;55611;48.602;9.490;2023-02-01T13:22:28;97430;;;8.4;60.5
68628;BME280;55611;48.602;9.490;2023-02-01T13:24:57;97430;;;8.5;60.5
68628;BME280;55611;48.602;9.490;2023-02-01T13:29:59;97430;;;8.4;60.5
68628;BME280;55611;48.602;9.490;2023-02-01T13:32:39;97440;;;8.4;60.5
68628;BME280;55611;48.602;9.490;2023-02-01T13:35:03;97430;;;8.4;60.5
68628;BME280;55611;48.602;9.490;2023-02-01T13:37:36;97430;;;8.3;60.5
68628;BME280;55611;48.602;9.490;2023-02-01T13:42:31;97440;;;8.3;60.5
68628;BME280;55611;48.602;9.490;2023-02-01T13:45:01;97440;;;8.4;60.5
68628;BME280;55611;48.602;9.490;2023-02-01T13:47:32;97430;;;8.4;60.5
68628;BME280;55611;48.602;9.490;2023-02-01T13:50:04;97430;;;8.4;60.5
68628;BME280;55611;48.602;9.490;2023-02-01T13:52:35;97420;;;8.4;60.5
68628;BME280;55611;48.602;9.490;2023-02-01T13:55:13;97420;;;8.4;60.5
68628;BME280;55611;48.602;9.490;2023-02-01T13:57:35;97420;;;8.5;60.5
68628;BME280;55611;48.602;9.490;2023-02-01T14:00:06;97430;;;8.4;60.5
68628;BME280;55611;48.602;9.490;2023-02-01T14:02:36;97400;;;8.5;60.5
68628;BME280;55611;48.602;9.490;2023-02-01T14:07:35;97390;;;8.4;60.5
68628;BME280;55611;48.602;9.490;2023-02-01T14:12:45;97400;;;8.3;60.5
68628;BME280;55611;48.602;9.490;2023-02-01T14:15:23;97410;;;8.3;60.5
68628;BME280;55611;48.602;9.490;2023-02-01T14:17:38;97390;;;8.4;60.5
68628;BME280;55611;48.602;9.490;2023-02-01T14:22:38;97400;;;8.3;60.5
68628;BME280;55611;48.602;9.490;2023-02-01T14:25:14;97400;;;8.4;60.5
68628;BME280;55611;48.602;9.490;2023-02-01T14:27:39;97400;;;8.4;60.5
68628;BME280;55611;48.602;9.490;2023-02-01T14:30:14;97400;;;8.4;60.5
68628;BME280;55611;48.602;9.490;2023-02-01T14:32:40;97400;;;8.4;60.5
68628;BME280;55611;48.602;9.490;2023-02-01T14:35:25;97400;;;8.4;60.5
68628;BME280;55611;48.602;9.490;2023-02-01T14:37:41;97400;;;8.4;60.5
68628;BME280;55611;48.602;9.490;2023-02-01T14:40:16;97400;;;8.3;60.5
68628;BME280;55611;48.602;9.490;2023-02-01T14:42:43;97410;;;8.3;60.5
68628;BME280;55611;48.602;9.490;2023-02-01T14:47:44;97410;;;8.3;60.5
68628;BME280;55611;48.602;9.490;2023-02-01T14:50:20;97410;;;8.3;60.5
68628;BME280;55611;48.602;9.490;2023-02-01T14:53:17;97420;;;8.3;60.5
68628;BME280;55611;48.602;9.490;2023-02-01T14:55:17;97420;;;8.4;60.5
68628;BME280;55611;48.602;9.490;2023-02-01T14:57:46;97400;;;8.3;60.5
68628;BME280;55611;48.602;9.490;2023-02-01T15:00:19;97430;;;8.3;60.5
68628;BME280;55611;48.602;9.490;2023-02-01T15:02:47;97410;;;8.3;60.5
68628;BME280;55611;48.602;9.490;2023-02-01T15:05:22;97410;;;8.3;60.5
68628;BME280;55611;48.602;9.490;2023-02-01T15:07:47;97430;;;8.3;60.5
68628;BME280;55611;48.602;9.490;2023-02-01T15:10:18;97420;;;8.3;60.5
68628;BME280;55611;48.602;9.490;2023-02-01T15:12:48;97430;;;8.3;60.5
68628;BME280;55611;48.602;9.490;2023-02-01T15:15:21;97430;;;8.3;60.5
68628;BME280;55611;48.602;9.490;2023-02-01T15:17:50;97430;;;8.3;60.5